sensor_id;sensor_type;location;lat;lon;timestamp;P1;durP1;ratioP1;P2;durP2;ratioP2
8102;SDS011;4094;49.948;11.574;2023-05-10T00:01:18;6.10;;;5.70;;
8102;SDS011;4094;49.948;11.574;2023-05-10T00:03:47;5.57;;;5.07;;
8102;SDS011;4094;49.948;11.574;2023-05-10T00:06:16;5.60;;;5.20;;
8102;SDS011;4094;49.948;11.574;2023-05-10T00:08:46;5.90;;;5.03;;
8102;SDS011;4094;49.948;11.574;2023-05-10T00:11:15;5.87;;;5.40;;
8102;SDS011;4094;49.948;11.574;2023-05-10T00:13:44;6.17;;;5.50;;
8102;SDS011;4094;49.948;11.574;2023-05-10T00:16:13;5.80;;;5.20;;
8102;SDS011;4094;49.948;11.574;2023-05-10T00:18:44;6.10;;;5.50;;
8102;SDS011;4094;49.948;11.574;2023-05-10T00:21:13;5.80;;;5.40;;
8102;SDS011;4094;49.948;11.574;2023-05-10T00:23:42;6.10;;;5.70;;
8102;SDS011;4094;49.948;11.574;2023-05-10T00:26:11;6.00;;;5.60;;
8102;SDS011;4094;49.948;11.574;2023-05-10T00:28:44;5.77;;;5.37;;
8102;SDS011;4094;49.948;11.574;2023-05-10T00:31:13;6.00;;;5.60;;
8102;SDS011;4094;49.948;11.574;2023-05-10T00:33:44;7.50;;;5.57;;
8102;SDS011;4094;49.948;11.574;2023-05-10T00:36:13;5.80;;;5.50;;
8102;SDS011;4094;49.948;11.574;2023-05-10T00:38:42;5.90;;;5.50;;
8102;SDS011;4094;49.948;11.574;2023-05-10T00:41:12;5.90;;;5.50;;
8102;SDS011;4094;49.948;11.574;2023-05-10T00:43:41;6.30;;;5.90;;
8102;SDS011;4094;49.948;11.574;2023-05-10T00:46:10;6.17;;;5.73;;
8102;SDS011;4094;49.948;11.574;2023-05-10T00:48:40;6.13;;;5.63;;
8102;SDS011;4094;49.948;11.574;2023-05-10T00:51:11;6.20;;;5.70;;
8102;SDS011;4094;49.948;11.574;2023-05-10T00:53:41;6.30;;;5.77;;
8102;SDS011;4094;49.948;11.574;2023-05-10T00:56:12;6.57;;;6.07;;
8102;SDS011;4094;49.948;11.574;2023-05-10T00:58:41;5.90;;;5.40;;
8102;SDS011;4094;49.948;11.574;2023-05-10T01:01:11;6.17;;;5.67;;
8102;SDS011;4094;49.948;11.574;2023-05-10T01:03:40;5.60;;;5.20;;
8102;SDS011;4094;49.948;11.574;2023-05-10T01:06:11;6.23;;;5.73;;
8102;SDS011;4094;49.948;11.574;2023-05-10T01:08:40;6.20;;;5.80;;
8102;SDS011;4094;49.948;11.574;2023-05-10T01:11:10;5.90;;;5.43;;
8102;SDS011;4094;49.948;11.574;2023-05-10T01:13:40;6.30;;;5.77;;
8102;SDS011;4094;49.948;11.574;2023-05-10T01:16:10;6.33;;;5.70;;
8102;SDS011;4094;49.948;11.574;2023-05-10T01:18:40;6.17;;;5.77;;
8102;SDS011;4094;49.948;11.574;2023-05-10T01:21:15;6.23;;;5.73;;
8102;SDS011;4094;49.948;11.574;2023-05-10T01:23:59;5.40;;;4.93;;
8102;SDS011;4094;49.948;11.574;2023-05-10T01:27:02;6.10;;;5.70;;
8102;SDS011;4094;49.948;11.574;2023-05-10T01:29:57;6.27;;;5.87;;
8102;SDS011;4094;49.948;11.574;2023-05-10T01:32:44;6.87;;;6.37;;
8102;SDS011;4094;49.948;11.574;2023-05-10T01:35:19;5.67;;;5.07;;
8102;SDS011;4094;49.948;11.574;2023-05-10T01:37:58;5.97;;;5.40;;
8102;SDS011;4094;49.948;11.574;2023-05-10T01:40:35;6.00;;;5.57;;
8102;SDS011;4094;49.948;11.574;2023-05-10T01:43:11;6.50;;;6.00;;
8102;SDS011;4094;49.948;11.574;2023-05-10T01:45:47;6.60;;;6.03;;
8102;SDS011;4094;49.948;11.574;2023-05-10T01:48:25;6.37;;;5.87;;
8102;SDS011;4094;49.948;11.574;2023-05-10T01:50:57;6.20;;;5.80;;
8102;SDS011;4094;49.948;11.574;2023-05-10T01:53:27;6.43;;;6.03;;
8102;SDS011;4094;49.948;11.574;2023-05-10T01:55:57;6.70;;;6.07;;
8102;SDS011;4094;49.948;11.574;2023-05-10T01:58:29;7.00;;;5.90;;
8102;SDS011;4094;49.948;11.574;2023-05-10T02:01:01;6.23;;;5.83;;
8102;SDS011;4094;49.948;11.574;2023-05-10T02:03:34;6.47;;;5.97;;
8102;SDS011;4094;49.948;11.574;2023-05-10T02:06:05;6.20;;;5.80;;
8102;SDS011;4094;49.948;11.574;2023-05-10T02:08:37;6.13;;;5.73;;
8102;SDS011;4094;49.948;11.574;2023-05-10T02:11:08;6.17;;;5.57;;
8102;SDS011;4094;49.948;11.574;2023-05-10T02:13:40;6.60;;;6.10;;
8102;SDS011;4094;49.948;11.574;2023-05-10T02:16:12;6.53;;;6.03;;
8102;SDS011;4094;49.948;11.574;2023-05-10T02:18:44;6.60;;;6.00;;
8102;SDS011;4094;49.948;11.574;2023-05-10T02:21:14;6.70;;;6.10;;
8102;SDS011;4094;49.948;11.574;2023-05-10T02:23:45;6.27;;;5.67;;
8102;SDS011;4094;49.948;11.574;2023-05-10T02:26:17;6.17;;;5.57;;
8102;SDS011;4094;49.948;11.574;2023-05-10T02:28:49;6.60;;;6.10;;
8102;SDS011;4094;49.948;11.574;2023-05-10T02:31:18;6.23;;;5.73;;
8102;SDS011;4094;49.948;11.574;2023-05-10T02:33:50;6.47;;;6.07;;
8102;SDS011;4094;49.948;11.574;2023-05-10T02:36:20;6.47;;;6.07;;
8102;SDS011;4094;49.948;11.574;2023-05-10T02:38:50;6.27;;;5.87;;
8102;SDS011;4094;49.948;11.574;2023-05-10T02:41:23;6.90;;;6.40;;
8102;SDS011;4094;49.948;11.574;2023-05-10T02:43:55;6.97;;;6.33;;
8102;SDS011;4094;49.948;11.574;2023-05-10T02:46:27;6.90;;;6.40;;
8102;SDS011;4094;49.948;11.574;2023-05-10T02:48:58;6.37;;;5.97;;
8102;SDS011;4094;49.948;11.574;2023-05-10T02:51:30;6.63;;;6.10;;
8102;SDS011;4094;49.948;11.574;2023-05-10T02:54:07;7.10;;;6.50;;
8102;SDS011;4094;49.948;11.574;2023-05-10T02:56:40;7.07;;;6.50;;
8102;SDS011;4094;49.948;11.574;2023-05-10T02:59:15;7.00;;;6.40;;
8102;SDS011;4094;49.948;11.574;2023-05-10T03:01:45;6.43;;;5.93;;
8102;SDS011;4094;49.948;11.574;2023-05-10T03:04:16;6.03;;;5.63;;
8102;SDS011;4094;49.948;11.574;2023-05-10T03:06:45;6.60;;;6.10;;
8102;SDS011;4094;49.948;11.574;2023-05-10T03:09:14;6.93;;;6.40;;
8102;SDS011;4094;49.948;11.574;2023-05-10T03:11:47;6.57;;;6.03;;
8102;SDS011;4094;49.948;11.574;2023-05-10T03:14:27;6.93;;;6.40;;
8102;SDS011;4094;49.948;11.574;2023-05-10T03:17:10;6.77;;;6.30;;
8102;SDS011;4094;49.948;11.574;2023-05-10T03:19:48;6.77;;;6.27;;
8102;SDS011;4094;49.948;11.574;2023-05-10T03:22:24;5.97;;;5.60;;
8102;SDS011;4094;49.948;11.574;2023-05-10T03:24:55;6.70;;;6.20;;
8102;SDS011;4094;49.948;11.574;2023-05-10T03:27:30;6.80;;;6.00;;
8102;SDS011;4094;49.948;11.574;2023-05-10T03:30:01;7.03;;;6.60;;
8102;SDS011;4094;49.948;11.574;2023-05-10T03:32:33;7.10;;;6.50;;
8102;SDS011;4094;49.948;11.574;2023-05-10T03:35:07;6.97;;;6.57;;
8102;SDS011;4094;49.948;11.574;2023-05-10T03:37:37;6.40;;;6.00;;
8102;SDS011;4094;49.948;11.574;2023-05-10T03:40:07;7.47;;;6.93;;
8102;SDS011;4094;49.948;11.574;2023-05-10T03:42:40;6.30;;;5.80;;
8102;SDS011;4094;49.948;11.574;2023-05-10T03:45:09;7.10;;;6.50;;
8102;SDS011;4094;49.948;11.574;2023-05-10T03:47:39;6.97;;;6.43;;
8102;SDS011;4094;49.948;11.574;2023-05-10T03:50:09;7.00;;;6.43;;
8102;SDS011;4094;49.948;11.574;2023-05-10T03:52:38;7.00;;;6.50;;
8102;SDS011;4094;49.948;11.574;2023-05-10T03:55:08;7.27;;;6.67;;
8102;SDS011;4094;49.948;11.574;2023-05-10T03:57:37;7.40;;;6.70;;
8102;SDS011;4094;49.948;11.574;2023-05-10T04:00:08;7.07;;;6.67;;
8102;SDS011;4094;49.948;11.574;2023-05-10T04:02:41;6.97;;;6.50;;
8102;SDS011;4094;49.948;11.574;2023-05-10T04:05:19;7.03;;;6.47;;
8102;SDS011;4094;49.948;11.574;2023-05-10T04:07:48;6.57;;;6.07;;
8102;SDS011;4094;49.948;11.574;2023-05-10T04:10:18;7.10;;;6.67;;
8102;SDS011;4094;49.948;11.574;2023-05-10T04:12:48;6.60;;;6.00;;
8102;SDS011;4094;49.948;11.574;2023-05-10T04:15:17;7.03;;;6.53;;
8102;SDS011;4094;49.948;11.574;2023-05-10T04:17:46;7.00;;;6.43;;
8102;SDS011;4094;49.948;11.574;2023-05-10T04:20:16;7.00;;;6.50;;
8102;SDS011;4094;49.948;11.574;2023-05-10T04:22:47;7.40;;;6.80;;
8102;SDS011;4094;49.948;11.574;2023-05-10T04:25:16;7.33;;;6.73;;
8102;SDS011;4094;49.948;11.574;2023-05-10T04:27:45;8.20;;;7.60;;
8102;SDS011;4094;49.948;11.574;2023-05-10T04:30:14;7.23;;;6.73;;
8102;SDS011;4094;49.948;11.574;2023-05-10T04:32:44;8.07;;;7.57;;
8102;SDS011;4094;49.948;11.574;2023-05-10T04:35:13;7.13;;;6.53;;
8102;SDS011;4094;49.948;11.574;2023-05-10T04:37:43;7.63;;;6.93;;
8102;SDS011;4094;49.948;11.574;2023-05-10T04:40:13;7.60;;;7.10;;
8102;SDS011;4094;49.948;11.574;2023-05-10T04:42:43;7.83;;;7.33;;
8102;SDS011;4094;49.948;11.574;2023-05-10T04:45:13;7.97;;;7.47;;
8102;SDS011;4094;49.948;11.574;2023-05-10T04:47:42;7.00;;;6.50;;
8102;SDS011;4094;49.948;11.574;2023-05-10T04:50:11;7.57;;;7.00;;
8102;SDS011;4094;49.948;11.574;2023-05-10T04:52:41;7.50;;;7.10;;
8102;SDS011;4094;49.948;11.574;2023-05-10T04:55:10;7.50;;;6.90;;
8102;SDS011;4094;49.948;11.574;2023-05-10T04:57:40;8.13;;;7.53;;
8102;SDS011;4094;49.948;11.574;2023-05-10T05:00:10;8.03;;;7.43;;
8102;SDS011;4094;49.948;11.574;2023-05-10T05:02:42;8.37;;;7.73;;
8102;SDS011;4094;49.948;11.574;2023-05-10T05:05:12;7.90;;;7.40;;
8102;SDS011;4094;49.948;11.574;2023-05-10T05:07:42;7.73;;;7.13;;
8102;SDS011;4094;49.948;11.574;2023-05-10T05:10:11;8.60;;;7.90;;
8102;SDS011;4094;49.948;11.574;2023-05-10T05:12:42;8.00;;;7.40;;
8102;SDS011;4094;49.948;11.574;2023-05-10T05:15:11;7.47;;;7.00;;
8102;SDS011;4094;49.948;11.574;2023-05-10T05:17:40;8.07;;;7.47;;
8102;SDS011;4094;49.948;11.574;2023-05-10T05:20:10;8.40;;;7.80;;
8102;SDS011;4094;49.948;11.574;2023-05-10T05:22:40;8.17;;;7.67;;
8102;SDS011;4094;49.948;11.574;2023-05-10T05:25:09;8.67;;;8.07;;
8102;SDS011;4094;49.948;11.574;2023-05-10T05:27:39;8.53;;;7.83;;
8102;SDS011;4094;49.948;11.574;2023-05-10T05:30:10;8.00;;;7.40;;
8102;SDS011;4094;49.948;11.574;2023-05-10T05:32:40;8.20;;;7.60;;
8102;SDS011;4094;49.948;11.574;2023-05-10T05:35:10;8.53;;;7.93;;
8102;SDS011;4094;49.948;11.574;2023-05-10T05:37:39;8.67;;;7.97;;
8102;SDS011;4094;49.948;11.574;2023-05-10T05:40:11;8.93;;;8.23;;
8102;SDS011;4094;49.948;11.574;2023-05-10T05:42:41;8.47;;;7.87;;
8102;SDS011;4094;49.948;11.574;2023-05-10T05:45:12;8.90;;;8.10;;
8102;SDS011;4094;49.948;11.574;2023-05-10T05:47:42;9.17;;;8.33;;
8102;SDS011;4094;49.948;11.574;2023-05-10T05:50:11;8.90;;;8.30;;
8102;SDS011;4094;49.948;11.574;2023-05-10T05:52:40;8.97;;;8.13;;
8102;SDS011;4094;49.948;11.574;2023-05-10T05:55:13;9.20;;;8.37;;
8102;SDS011;4094;49.948;11.574;2023-05-10T05:57:43;9.37;;;8.50;;
8102;SDS011;4094;49.948;11.574;2023-05-10T06:00:14;9.20;;;8.40;;
8102;SDS011;4094;49.948;11.574;2023-05-10T06:02:45;8.73;;;8.03;;
8102;SDS011;4094;49.948;11.574;2023-05-10T06:05:14;8.97;;;8.23;;
8102;SDS011;4094;49.948;11.574;2023-05-10T06:07:44;9.37;;;8.67;;
8102;SDS011;4094;49.948;11.574;2023-05-10T06:10:13;8.83;;;8.13;;
8102;SDS011;4094;49.948;11.574;2023-05-10T06:12:43;8.63;;;7.83;;
8102;SDS011;4094;49.948;11.574;2023-05-10T06:15:12;8.27;;;7.67;;
8102;SDS011;4094;49.948;11.574;2023-05-10T06:17:43;8.53;;;7.83;;
8102;SDS011;4094;49.948;11.574;2023-05-10T06:20:14;9.27;;;8.57;;
8102;SDS011;4094;49.948;11.574;2023-05-10T06:22:44;9.03;;;8.33;;
8102;SDS011;4094;49.948;11.574;2023-05-10T06:25:13;8.30;;;7.73;;
8102;SDS011;4094;49.948;11.574;2023-05-10T06:27:45;8.80;;;8.00;;
8102;SDS011;4094;49.948;11.574;2023-05-10T06:30:21;8.23;;;7.63;;
8102;SDS011;4094;49.948;11.574;2023-05-10T06:32:54;7.97;;;7.37;;
8102;SDS011;4094;49.948;11.574;2023-05-10T06:35:24;9.07;;;8.47;;
8102;SDS011;4094;49.948;11.574;2023-05-10T06:37:54;9.03;;;7.53;;
8102;SDS011;4094;49.948;11.574;2023-05-10T06:40:23;8.40;;;7.80;;
8102;SDS011;4094;49.948;11.574;2023-05-10T06:42:53;8.30;;;7.37;;
8102;SDS011;4094;49.948;11.574;2023-05-10T06:45:24;7.93;;;7.33;;
8102;SDS011;4094;49.948;11.574;2023-05-10T06:47:53;8.60;;;7.90;;
8102;SDS011;4094;49.948;11.574;2023-05-10T06:50:23;8.63;;;7.97;;
8102;SDS011;4094;49.948;11.574;2023-05-10T06:52:52;8.30;;;7.70;;
8102;SDS011;4094;49.948;11.574;2023-05-10T06:55:21;7.80;;;7.20;;
8102;SDS011;4094;49.948;11.574;2023-05-10T06:57:51;7.57;;;7.07;;
8102;SDS011;4094;49.948;11.574;2023-05-10T07:00:20;8.87;;;8.17;;
8102;SDS011;4094;49.948;11.574;2023-05-10T07:02:51;8.43;;;7.73;;
8102;SDS011;4094;49.948;11.574;2023-05-10T07:05:21;7.73;;;7.13;;
8102;SDS011;4094;49.948;11.574;2023-05-10T07:07:50;8.97;;;8.20;;
8102;SDS011;4094;49.948;11.574;2023-05-10T07:10:20;8.07;;;7.27;;
8102;SDS011;4094;49.948;11.574;2023-05-10T07:12:50;7.83;;;7.30;;
8102;SDS011;4094;49.948;11.574;2023-05-10T07:15:20;8.33;;;7.73;;
8102;SDS011;4094;49.948;11.574;2023-05-10T07:17:52;9.03;;;8.30;;
8102;SDS011;4094;49.948;11.574;2023-05-10T07:20:21;8.57;;;7.97;;
8102;SDS011;4094;49.948;11.574;2023-05-10T07:22:50;8.77;;;8.07;;
8102;SDS011;4094;49.948;11.574;2023-05-10T07:25:20;8.83;;;8.13;;
8102;SDS011;4094;49.948;11.574;2023-05-10T07:27:49;8.33;;;7.73;;
8102;SDS011;4094;49.948;11.574;2023-05-10T07:30:18;8.47;;;7.83;;
8102;SDS011;4094;49.948;11.574;2023-05-10T07:32:48;8.57;;;7.90;;
8102;SDS011;4094;49.948;11.574;2023-05-10T07:35:18;8.83;;;8.17;;
8102;SDS011;4094;49.948;11.574;2023-05-10T07:37:48;8.80;;;8.03;;
8102;SDS011;4094;49.948;11.574;2023-05-10T07:40:17;8.90;;;8.20;;
8102;SDS011;4094;49.948;11.574;2023-05-10T07:42:47;7.60;;;7.00;;
8102;SDS011;4094;49.948;11.574;2023-05-10T07:45:17;8.03;;;7.53;;
8102;SDS011;4094;49.948;11.574;2023-05-10T07:47:46;9.17;;;8.40;;
8102;SDS011;4094;49.948;11.574;2023-05-10T07:50:16;8.40;;;7.70;;
8102;SDS011;4094;49.948;11.574;2023-05-10T07:52:46;8.40;;;7.80;;
8102;SDS011;4094;49.948;11.574;2023-05-10T07:55:17;8.37;;;7.77;;
8102;SDS011;4094;49.948;11.574;2023-05-10T07:57:48;8.23;;;7.63;;
8102;SDS011;4094;49.948;11.574;2023-05-10T08:00:18;7.50;;;7.00;;
8102;SDS011;4094;49.948;11.574;2023-05-10T08:02:48;8.20;;;7.70;;
8102;SDS011;4094;49.948;11.574;2023-05-10T08:05:18;8.43;;;7.83;;
8102;SDS011;4094;49.948;11.574;2023-05-10T08:07:48;8.17;;;7.67;;
8102;SDS011;4094;49.948;11.574;2023-05-10T08:10:18;8.07;;;7.50;;
8102;SDS011;4094;49.948;11.574;2023-05-10T08:12:47;8.30;;;7.50;;
8102;SDS011;4094;49.948;11.574;2023-05-10T08:15:17;8.43;;;7.83;;
8102;SDS011;4094;49.948;11.574;2023-05-10T08:17:46;7.83;;;7.33;;
8102;SDS011;4094;49.948;11.574;2023-05-10T08:20:15;7.70;;;7.10;;
8102;SDS011;4094;49.948;11.574;2023-05-10T08:22:46;8.17;;;7.47;;
8102;SDS011;4094;49.948;11.574;2023-05-10T08:25:19;7.70;;;7.10;;
8102;SDS011;4094;49.948;11.574;2023-05-10T08:27:49;7.33;;;6.67;;
8102;SDS011;4094;49.948;11.574;2023-05-10T08:30:18;7.57;;;7.00;;
8102;SDS011;4094;49.948;11.574;2023-05-10T08:32:47;7.10;;;6.60;;
8102;SDS011;4094;49.948;11.574;2023-05-10T08:35:17;8.20;;;7.30;;
8102;SDS011;4094;49.948;11.574;2023-05-10T08:37:46;7.50;;;6.90;;
8102;SDS011;4094;49.948;11.574;2023-05-10T08:40:15;6.67;;;6.27;;
8102;SDS011;4094;49.948;11.574;2023-05-10T08:42:50;7.90;;;7.30;;
8102;SDS011;4094;49.948;11.574;2023-05-10T08:45:24;7.07;;;6.50;;
8102;SDS011;4094;49.948;11.574;2023-05-10T08:47:54;7.03;;;6.53;;
8102;SDS011;4094;49.948;11.574;2023-05-10T08:50:24;6.97;;;6.47;;
8102;SDS011;4094;49.948;11.574;2023-05-10T08:52:54;6.17;;;5.77;;
8102;SDS011;4094;49.948;11.574;2023-05-10T08:55:27;6.03;;;5.53;;
8102;SDS011;4094;49.948;11.574;2023-05-10T08:57:58;6.00;;;5.60;;
8102;SDS011;4094;49.948;11.574;2023-05-10T09:00:28;6.50;;;6.00;;
8102;SDS011;4094;49.948;11.574;2023-05-10T09:02:58;6.27;;;5.87;;
8102;SDS011;4094;49.948;11.574;2023-05-10T09:05:28;6.43;;;5.83;;
8102;SDS011;4094;49.948;11.574;2023-05-10T09:07:57;6.20;;;5.80;;
8102;SDS011;4094;49.948;11.574;2023-05-10T09:10:27;5.97;;;5.60;;
8102;SDS011;4094;49.948;11.574;2023-05-10T09:12:59;6.53;;;6.03;;
8102;SDS011;4094;49.948;11.574;2023-05-10T09:15:29;5.70;;;5.30;;
8102;SDS011;4094;49.948;11.574;2023-05-10T09:17:58;5.53;;;5.13;;
8102;SDS011;4094;49.948;11.574;2023-05-10T09:20:29;4.53;;;4.33;;
8102;SDS011;4094;49.948;11.574;2023-05-10T09:22:59;4.40;;;4.20;;
8102;SDS011;4094;49.948;11.574;2023-05-10T09:25:28;4.53;;;4.07;;
8102;SDS011;4094;49.948;11.574;2023-05-10T09:28:02;4.37;;;4.17;;
8102;SDS011;4094;49.948;11.574;2023-05-10T09:30:35;3.87;;;3.60;;
8102;SDS011;4094;49.948;11.574;2023-05-10T09:33:04;3.83;;;3.63;;
8102;SDS011;4094;49.948;11.574;2023-05-10T09:35:34;3.60;;;3.50;;
8102;SDS011;4094;49.948;11.574;2023-05-10T09:38:04;3.50;;;3.30;;
8102;SDS011;4094;49.948;11.574;2023-05-10T09:40:33;3.27;;;3.10;;
8102;SDS011;4094;49.948;11.574;2023-05-10T09:43:05;3.10;;;2.90;;
8102;SDS011;4094;49.948;11.574;2023-05-10T09:45:35;3.37;;;3.20;;
8102;SDS011;4094;49.948;11.574;2023-05-10T09:48:05;3.30;;;3.20;;
8102;SDS011;4094;49.948;11.574;2023-05-10T09:50:35;3.27;;;3.00;;
8102;SDS011;4094;49.948;11.574;2023-05-10T09:53:04;3.70;;;3.37;;
8102;SDS011;4094;49.948;11.574;2023-05-10T09:55:40;3.77;;;3.50;;
8102;SDS011;4094;49.948;11.574;2023-05-10T09:58:13;3.23;;;3.03;;
8102;SDS011;4094;49.948;11.574;2023-05-10T10:00:43;3.60;;;3.40;;
8102;SDS011;4094;49.948;11.574;2023-05-10T10:03:15;3.17;;;3.07;;
8102;SDS011;4094;49.948;11.574;2023-05-10T10:05:46;3.37;;;3.20;;
8102;SDS011;4094;49.948;11.574;2023-05-10T10:08:16;3.07;;;2.97;;
8102;SDS011;4094;49.948;11.574;2023-05-10T10:10:46;3.27;;;3.07;;
8102;SDS011;4094;49.948;11.574;2023-05-10T10:13:19;2.97;;;2.87;;
8102;SDS011;4094;49.948;11.574;2023-05-10T10:15:48;3.27;;;3.00;;
8102;SDS011;4094;49.948;11.574;2023-05-10T10:18:19;3.13;;;2.90;;
8102;SDS011;4094;49.948;11.574;2023-05-10T10:20:51;2.97;;;2.87;;
8102;SDS011;4094;49.948;11.574;2023-05-10T10:23:21;3.10;;;2.90;;
8102;SDS011;4094;49.948;11.574;2023-05-10T10:25:50;3.33;;;3.10;;
8102;SDS011;4094;49.948;11.574;2023-05-10T10:28:25;2.97;;;2.87;;
8102;SDS011;4094;49.948;11.574;2023-05-10T10:31:11;2.90;;;2.80;;
8102;SDS011;4094;49.948;11.574;2023-05-10T10:33:55;2.93;;;2.83;;
8102;SDS011;4094;49.948;11.574;2023-05-10T10:36:29;2.90;;;2.80;;
8102;SDS011;4094;49.948;11.574;2023-05-10T10:39:00;3.40;;;3.30;;
8102;SDS011;4094;49.948;11.574;2023-05-10T10:41:32;3.10;;;2.90;;
8102;SDS011;4094;49.948;11.574;2023-05-10T10:47:03;3.30;;;3.10;;
8102;SDS011;4094;49.948;11.574;2023-05-10T10:49:42;2.63;;;2.53;;
8102;SDS011;4094;49.948;11.574;2023-05-10T10:52:24;2.80;;;2.70;;
8102;SDS011;4094;49.948;11.574;2023-05-10T10:54:59;2.90;;;2.80;;
8102;SDS011;4094;49.948;11.574;2023-05-10T10:57:31;2.80;;;2.70;;
8102;SDS011;4094;49.948;11.574;2023-05-10T11:00:23;2.50;;;2.40;;
8102;SDS011;4094;49.948;11.574;2023-05-10T11:02:56;2.90;;;2.77;;
8102;SDS011;4094;49.948;11.574;2023-05-10T11:08:16;2.60;;;2.50;;
8102;SDS011;4094;49.948;11.574;2023-05-10T11:11:01;2.60;;;2.50;;
8102;SDS011;4094;49.948;11.574;2023-05-10T11:13:37;2.70;;;2.50;;
8102;SDS011;4094;49.948;11.574;2023-05-10T11:16:13;2.80;;;2.70;;
8102;SDS011;4094;49.948;11.574;2023-05-10T11:18:54;2.93;;;2.77;;
8102;SDS011;4094;49.948;11.574;2023-05-10T11:21:29;2.67;;;2.57;;
8102;SDS011;4094;49.948;11.574;2023-05-10T11:24:00;2.30;;;2.20;;
8102;SDS011;4094;49.948;11.574;2023-05-10T11:26:34;3.10;;;2.90;;
8102;SDS011;4094;49.948;11.574;2023-05-10T11:29:04;3.30;;;3.10;;
8102;SDS011;4094;49.948;11.574;2023-05-10T11:31:34;3.10;;;2.90;;
8102;SDS011;4094;49.948;11.574;2023-05-10T11:34:11;2.83;;;2.63;;
8102;SDS011;4094;49.948;11.574;2023-05-10T11:36:41;3.10;;;2.90;;
8102;SDS011;4094;49.948;11.574;2023-05-10T11:39:11;3.20;;;2.90;;
8102;SDS011;4094;49.948;11.574;2023-05-10T11:41:40;5.87;;;3.07;;
8102;SDS011;4094;49.948;11.574;2023-05-10T11:44:09;3.20;;;3.10;;
8102;SDS011;4094;49.948;11.574;2023-05-10T11:46:40;3.30;;;3.10;;
8102;SDS011;4094;49.948;11.574;2023-05-10T11:49:09;3.23;;;3.13;;
8102;SDS011;4094;49.948;11.574;2023-05-10T11:51:40;3.67;;;3.27;;
8102;SDS011;4094;49.948;11.574;2023-05-10T11:54:11;3.20;;;3.03;;
8102;SDS011;4094;49.948;11.574;2023-05-10T11:56:40;4.77;;;3.10;;
8102;SDS011;4094;49.948;11.574;2023-05-10T11:59:09;3.70;;;3.50;;
8102;SDS011;4094;49.948;11.574;2023-05-10T12:01:41;3.63;;;3.43;;
8102;SDS011;4094;49.948;11.574;2023-05-10T12:04:10;3.30;;;3.00;;
8102;SDS011;4094;49.948;11.574;2023-05-10T12:06:40;3.90;;;3.60;;
8102;SDS011;4094;49.948;11.574;2023-05-10T12:09:09;3.67;;;3.30;;
8102;SDS011;4094;49.948;11.574;2023-05-10T12:11:39;3.67;;;3.37;;
8102;SDS011;4094;49.948;11.574;2023-05-10T12:14:10;4.37;;;3.40;;
8102;SDS011;4094;49.948;11.574;2023-05-10T12:16:41;3.43;;;3.23;;
8102;SDS011;4094;49.948;11.574;2023-05-10T12:19:12;3.70;;;3.50;;
8102;SDS011;4094;49.948;11.574;2023-05-10T12:21:48;4.87;;;3.20;;
8102;SDS011;4094;49.948;11.574;2023-05-10T12:24:17;3.57;;;3.37;;
8102;SDS011;4094;49.948;11.574;2023-05-10T12:26:49;3.50;;;3.30;;
8102;SDS011;4094;49.948;11.574;2023-05-10T12:29:19;3.93;;;3.50;;
8102;SDS011;4094;49.948;11.574;2023-05-10T12:31:56;3.43;;;3.20;;
8102;SDS011;4094;49.948;11.574;2023-05-10T12:34:26;3.50;;;3.30;;
8102;SDS011;4094;49.948;11.574;2023-05-10T12:37:00;3.27;;;3.07;;
8102;SDS011;4094;49.948;11.574;2023-05-10T12:39:39;3.57;;;3.37;;
8102;SDS011;4094;49.948;11.574;2023-05-10T12:42:09;3.37;;;3.23;;
8102;SDS011;4094;49.948;11.574;2023-05-10T12:44:39;3.53;;;3.33;;
8102;SDS011;4094;49.948;11.574;2023-05-10T12:47:09;3.20;;;2.97;;
8102;SDS011;4094;49.948;11.574;2023-05-10T12:49:39;3.30;;;3.20;;
8102;SDS011;4094;49.948;11.574;2023-05-10T12:52:08;3.60;;;3.40;;
8102;SDS011;4094;49.948;11.574;2023-05-10T12:54:37;3.60;;;3.40;;
8102;SDS011;4094;49.948;11.574;2023-05-10T12:57:06;3.03;;;2.93;;
8102;SDS011;4094;49.948;11.574;2023-05-10T12:59:37;3.30;;;3.03;;
8102;SDS011;4094;49.948;11.574;2023-05-10T13:02:08;3.10;;;3.00;;
8102;SDS011;4094;49.948;11.574;2023-05-10T13:04:39;3.30;;;3.10;;
8102;SDS011;4094;49.948;11.574;2023-05-10T13:07:09;3.20;;;3.00;;
8102;SDS011;4094;49.948;11.574;2023-05-10T13:09:38;3.40;;;3.20;;
8102;SDS011;4094;49.948;11.574;2023-05-10T13:12:07;3.50;;;3.27;;
8102;SDS011;4094;49.948;11.574;2023-05-10T13:14:37;3.70;;;3.43;;
8102;SDS011;4094;49.948;11.574;2023-05-10T13:17:09;3.40;;;3.20;;
8102;SDS011;4094;49.948;11.574;2023-05-10T13:19:38;3.47;;;3.27;;
8102;SDS011;4094;49.948;11.574;2023-05-10T13:22:09;3.60;;;3.40;;
8102;SDS011;4094;49.948;11.574;2023-05-10T13:24:39;3.50;;;3.20;;
8102;SDS011;4094;49.948;11.574;2023-05-10T13:27:08;3.50;;;3.30;;
8102;SDS011;4094;49.948;11.574;2023-05-10T13:29:38;3.47;;;3.27;;
8102;SDS011;4094;49.948;11.574;2023-05-10T13:32:10;3.13;;;3.03;;
8102;SDS011;4094;49.948;11.574;2023-05-10T13:34:39;3.83;;;3.40;;
8102;SDS011;4094;49.948;11.574;2023-05-10T13:37:08;3.30;;;3.20;;
8102;SDS011;4094;49.948;11.574;2023-05-10T13:39:37;3.30;;;3.13;;
8102;SDS011;4094;49.948;11.574;2023-05-10T13:42:06;3.20;;;3.03;;
8102;SDS011;4094;49.948;11.574;2023-05-10T13:44:36;3.17;;;3.00;;
8102;SDS011;4094;49.948;11.574;2023-05-10T13:47:06;3.10;;;3.00;;
8102;SDS011;4094;49.948;11.574;2023-05-10T13:49:36;3.10;;;3.00;;
8102;SDS011;4094;49.948;11.574;2023-05-10T13:52:06;3.10;;;3.00;;
8102;SDS011;4094;49.948;11.574;2023-05-10T13:54:35;2.87;;;2.77;;
8102;SDS011;4094;49.948;11.574;2023-05-10T13:57:05;3.20;;;3.00;;
8102;SDS011;4094;49.948;11.574;2023-05-10T13:59:35;3.07;;;2.97;;
8102;SDS011;4094;49.948;11.574;2023-05-10T14:02:04;3.13;;;2.93;;
8102;SDS011;4094;49.948;11.574;2023-05-10T14:04:34;3.27;;;3.07;;
8102;SDS011;4094;49.948;11.574;2023-05-10T14:07:05;3.37;;;3.07;;
8102;SDS011;4094;49.948;11.574;2023-05-10T14:09:34;3.23;;;3.00;;
8102;SDS011;4094;49.948;11.574;2023-05-10T14:12:04;3.10;;;3.00;;
8102;SDS011;4094;49.948;11.574;2023-05-10T14:14:33;3.70;;;3.47;;
8102;SDS011;4094;49.948;11.574;2023-05-10T14:17:02;3.00;;;2.90;;
8102;SDS011;4094;49.948;11.574;2023-05-10T14:19:31;3.40;;;3.20;;
8102;SDS011;4094;49.948;11.574;2023-05-10T14:22:01;3.10;;;3.00;;
8102;SDS011;4094;49.948;11.574;2023-05-10T14:24:31;3.10;;;3.00;;
8102;SDS011;4094;49.948;11.574;2023-05-10T14:27:01;3.23;;;3.03;;
8102;SDS011;4094;49.948;11.574;2023-05-10T14:29:30;3.20;;;3.10;;
8102;SDS011;4094;49.948;11.574;2023-05-10T14:32:00;3.27;;;3.17;;
8102;SDS011;4094;49.948;11.574;2023-05-10T14:34:30;3.00;;;2.90;;
8102;SDS011;4094;49.948;11.574;2023-05-10T14:37:00;3.03;;;2.80;;
8102;SDS011;4094;49.948;11.574;2023-05-10T14:39:29;2.90;;;2.80;;
8102;SDS011;4094;49.948;11.574;2023-05-10T14:41:59;3.20;;;3.10;;
8102;SDS011;4094;49.948;11.574;2023-05-10T14:44:30;3.70;;;3.40;;
8102;SDS011;4094;49.948;11.574;2023-05-10T14:46:59;3.73;;;3.53;;
8102;SDS011;4094;49.948;11.574;2023-05-10T14:49:28;3.60;;;3.30;;
8102;SDS011;4094;49.948;11.574;2023-05-10T14:51:59;2.90;;;2.80;;
8102;SDS011;4094;49.948;11.574;2023-05-10T14:54:28;3.20;;;3.00;;
8102;SDS011;4094;49.948;11.574;2023-05-10T14:56:57;3.40;;;3.20;;
8102;SDS011;4094;49.948;11.574;2023-05-10T14:59:29;3.23;;;3.03;;
8102;SDS011;4094;49.948;11.574;2023-05-10T15:01:59;3.47;;;3.27;;
8102;SDS011;4094;49.948;11.574;2023-05-10T15:04:28;3.40;;;3.20;;
8102;SDS011;4094;49.948;11.574;2023-05-10T15:06:58;3.47;;;3.27;;
8102;SDS011;4094;49.948;11.574;2023-05-10T15:09:28;3.40;;;3.20;;
8102;SDS011;4094;49.948;11.574;2023-05-10T15:11:57;3.20;;;3.00;;
8102;SDS011;4094;49.948;11.574;2023-05-10T15:14:27;3.83;;;3.40;;
8102;SDS011;4094;49.948;11.574;2023-05-10T15:16:57;4.10;;;3.80;;
8102;SDS011;4094;49.948;11.574;2023-05-10T15:19:27;4.13;;;3.83;;
8102;SDS011;4094;49.948;11.574;2023-05-10T15:21:57;3.80;;;3.50;;
8102;SDS011;4094;49.948;11.574;2023-05-10T15:24:26;3.77;;;3.57;;
8102;SDS011;4094;49.948;11.574;2023-05-10T15:26:55;4.07;;;3.77;;
8102;SDS011;4094;49.948;11.574;2023-05-10T15:29:24;4.00;;;3.53;;